Tiempo atmosférico en la estación meteorológica de Cubillas de Rueda, León (916 m.)



Fecha
DESCASC
Temp. máxima en grados centígrados (hora)
DESCASC
Temp. mínima en grados centígrados (hora)
DESCASC
Temp. media en grados centígrados
DESCASC
Racha de viento máxima en m/sg (hora)
DESCASC
Velocidad máxima media en intervalos de 10 minutos(hora)
DESCASC
Precipitaciones diarias en mm
DESCASC
Precipitaciones de 00:00 a 06:00 en mm
DESCASC
Precipitaciones de 06:00 a 12:00 en mm
DESCASC
Precipitaciones de 12:00 a 18:00 en mm
DESCASC
Precipitaciones de 18:00 a 24:00 en mm
DESCASC
25-04-2019 10 (16:00) 1.8 (06:10) 5.9 16.11 (18:20) 9.72 (16:20) 2.4 0.8 0 0 1.6
24-04-2019 8.9 (19:20) 0.4 (09:20) 4.6 15 (16:50) 8.33 (16:50) 15 0 7.2 6.2 1.6
23-04-2019 11.2 (00:00) 3.9 (22:10) 7.5 11.67 (17:40) 6.39 (17:10) 4.8 4 0.8 0 0
22-04-2019 15.6 (17:20) 1.2 (00:00) 8.4 8.33 (17:10) 4.72 (17:10) 0 0 0 0 0
21-04-2019 16.7 (16:50) 2.7 (00:00) 9.7 14.17 (16:30) 9.17 (17:50) 0 0 0 0 0
20-04-2019 19.7 (14:50) 3.5 (00:00) 11.6 12.5 (16:50) 8.61 (19:00) 0 0 0 0 0
19-04-2019 14.5 (17:00) 7.1 (00:00) 10.8 13.89 (16:30) 8.89 (19:10) 5 4.6 0.4 0 0
18-04-2019 10.3 (00:00) 6.6 (00:00) 8.5 8.06 (23:00) 5.28 (23:00) 14 4.6 0 6 3.4
17-04-2019 17.2 (17:50) 8.3 (00:00) 12.8 13.89 (20:50) 6.67 (21:00) 0 0 0 0 0
16-04-2019 16.1 (18:20) 0.8 (00:00) 8.5 7.78 (17:20) 4.17 (23:59) 0 0 0 0 0
15-04-2019 16.6 (16:20) 6.1 (00:00) 11.4 15.28 (13:40) 8.89 (16:40) 2.6 0 0 2.6 0
14-04-2019 20.2 (16:30) 4.8 (00:00) 12.5 8.89 (16:40) 4.17 (16:40) 0 0 0 0 0
13-04-2019 18.9 (18:00) -1.2 (-00:0) 8.8 8.61 (18:40) 4.17 (18:40) 0 0 0 0 0
12-04-2019 15.1 (18:00) -3.8 (-00:0) 5.7 5.83 (16:50) 3.06 (11:40) 0 0 0 0 0
11-04-2019 12.6 (17:20) -2.4 (-00:0) 5.1 9.17 (19:00) 5.83 (19:00) 0 0 0 0 0
10-04-2019 10.6 (18:50) 0.1 (00:00) 5.4 9.44 (20:20) 6.11 (19:40) 1.8 0.2 1.4 0.2 0
09-04-2019 11.1 (18:20) 1 (00:00) 6.1 12.78 (17:20) 7.5 (16:50) 5.4 0 4.8 0.6 0
08-04-2019 11.2 (15:50) 3 (00:00) 7.1 10.83 (17:50) 5.28 (16:40) 1.6 1.6 0 0 0
07-04-2019 10.5 (16:10) -1.7 (-00:0) 4.4 11.94 (18:30) 6.67 (17:40) 5.2 0 0 0 5.2
06-04-2019 8.4 (17:10) -0.7 (-00:0) 3.8 11.94 (17:30) 7.5 (17:30) 1.2 0 0.4 0.8 0
05-04-2019 8.1 (16:30) 1.7 (00:00) 4.9 10.56 (17:00) 5.28 (17:00) 7.2 7.2 0 0 0
04-04-2019 8.7 (16:40) -6.9 (-00:0) 0.9 10.28 (18:40) 5.83 (17:50) 4.4 0 0 0 4.4
03-04-2019 8.1 (16:10) -1.2 (-00:0) 3.5 13.06 (18:20) 7.5 (18:30) 0 0 0 0 0
02-04-2019 16 (16:00) 1.2 (00:00) 8.6 8.61 (17:50) 5.83 (20:00) 0 0 0 0 0
01-04-2019 16.6 (17:30) -2 (-00:0) 7.3 6.94 (22:20) 5 (22:20) 0 0 0 0 0
31-03-2019 17.2 (17:00) 5.6 (00:00) 11.4 9.17 (14:10) 6.39 (18:40) 0 0 0 0 0
30-03-2019 17.6 (16:30) 1.9 (00:00) 9.8 8.06 (20:00) 5.28 (21:10) 0 0 0 0 0
29-03-2019 17.6 (17:00) -0.9 (-00:0) 8.4 7.78 (15:30) 3.89 (15:40) 0 0 0 0 0
28-03-2019 18.4 (14:20) -3.9 (-00:0) 7.2 12.78 (13:50) 8.33 (14:20) 0 0 0 0 0
27-03-2019 18.6 (15:00) -1 (-00:0) 8.8 13.61 (12:20) 7.78 (12:30) 0 0 0 0 0

Gráficas

Temp. máximas Temp. mínimas Temp. medias Precipitaciones Rachas de viento máximas Velocidades máximas media en intervalos de 10 minutos

Datos horarios

Fecha y hora oficial Temperatura (ºC) Velocidad del viento (km/h) Dirección del viento Racha (km/h) Dirección de racha Precipitación (mm) Presión (hPa) Tendencia (hPa) Humedad (%)
2019-04-25 23:00:00 4.1 9 Oeste 30 Oeste 0.4 -- -- 87
2019-04-25 22:00:00 5.1 9 Oeste 22 Oeste 0.2 -- -- 82
2019-04-25 21:00:00 5.7 8 Sudoeste 34 Oeste 0 -- -- 81
2019-04-25 20:00:00 6.1 21 Oeste 40 Oeste 0 -- -- 75
2019-04-25 19:00:00 6.2 15 Oeste 58 Sudoeste 1 -- -- 86
2019-04-25 18:00:00 7.9 31 Sudoeste 56 Sudoeste 0 -- -- 64
2019-04-25 17:00:00 9.1 30 Sudoeste 55 Sudoeste 0 -- -- 62
2019-04-25 16:00:00 10 28 Sudoeste 51 Sudoeste 0 -- -- 57
2019-04-25 15:00:00 9.2 28 Sudoeste 53 Sudoeste 0 -- -- 61
2019-04-25 14:00:00 8 28 Sudoeste 48 Sudoeste 0 -- -- 65
2019-04-25 13:00:00 6.5 24 Sudoeste 44 Sudoeste 0 -- -- 71
2019-04-25 12:00:00 6.8 21 Sudoeste 40 Sudoeste 0 -- -- 72
2019-04-25 11:00:00 4.4 14 Oeste 31 Oeste 0 -- -- 86
2019-04-25 10:00:00 3.1 15 Sudoeste 39 Oeste 0 -- -- 92
2019-04-25 09:00:00 2.5 17 Sudoeste 28 Sudoeste 0 -- -- 94
2019-04-25 08:00:00 2.1 12 Sudoeste 24 Sudoeste 0 -- -- 95
2019-04-25 07:00:00 2 12 Sudoeste 27 Sudoeste 0 -- -- 95
2019-04-25 06:00:00 1.9 13 Sudoeste 27 Sur 0 -- -- 95
2019-04-25 05:00:00 2 12 Sudoeste 39 Sudoeste 0.6 -- -- 94
2019-04-25 04:00:00 3.4 13 Sudoeste 24 Sudoeste 0 -- -- 95
2019-04-25 03:00:00 3.4 8 Sudoeste 25 Sudoeste 0 -- -- 94
2019-04-25 02:00:00 3.8 10 Sudoeste 20 Sudoeste 0 -- -- 95
2019-04-25 01:00:00 3.9 7 Sudoeste 13 Sudoeste 0.2 -- -- 95
2019-04-25 00:00:00 3.7 5 Oeste 13 Oeste 1.2 -- -- 92
2019-04-24 23:00:00 4.5 11 Oeste 42 Sudoeste 0.2 -- -- 88
2019-04-24 22:00:00 5.5 19 Sudoeste 43 Sudoeste 0 -- -- 87
2019-04-24 21:00:00 6.3 22 Sudoeste 49 Sudoeste 0.2 -- -- 87
2019-04-24 20:00:00 7.6 23 Sudoeste 47 Sudoeste 0 -- -- 80
2019-04-24 19:00:00 8.4 23 Sudoeste 40 Oeste 0 -- -- 81
2019-04-24 18:00:00 8 17 Sudoeste 47 Sudoeste 0 -- -- 85
2019-04-24 17:00:00 7.1 26 Sudoeste 54 Oeste 0.2 -- -- 86
2019-04-24 16:00:00 8 22 Sudoeste 45 Sudoeste 0 -- -- 87
2019-04-24 15:00:00 6.9 19 Sudoeste 40 Sudoeste 1 -- -- 96
2019-04-24 14:00:00 4.2 3 Oeste 10 Oeste 2.4 -- -- 98
2019-04-24 13:00:00 2 4 Norte 6 Norte 2.6 -- -- 96
2019-04-24 12:00:00 1 3 Sudeste 8 Este 2 -- -- 96
2019-04-24 11:00:00 0.5 6 Sudeste 14 Sudeste 0.8 -- -- 96
2019-04-24 10:00:00 0.4 8 Sudeste 15 Sudeste 0 -- -- 96
2019-04-24 09:00:00 0.6 7 Sur 19 Sur 1.4 -- -- 95
2019-04-24 08:00:00 1 8 Sur 26 Sur 1.6 -- -- 94
2019-04-24 07:00:00 1.5 13 Sur 33 Sudoeste 1.4 -- -- 93
2019-04-24 06:00:00 2.3 13 Sur 25 Sudoeste 0 -- -- 91
2019-04-24 05:00:00 2 10 Sur 23 Sudoeste 0 -- -- 91
2019-04-24 04:00:00 2.4 9 Sudoeste 25 Sudoeste 0 -- -- 89
2019-04-24 03:00:00 3.2 12 Sudoeste 24 Sudoeste 0 -- -- 86
2019-04-24 02:00:00 4 8 Sudoeste 17 Sudoeste 0 -- -- 83
2019-04-24 01:00:00 4.3 6 Sudoeste 18 Sudoeste 0 -- -- 76
2019-04-24 00:00:00 4.6 9 Oeste 16 Oeste 0 -- -- 71
2019-04-23 23:00:00 4.7 9 Oeste 17 Oeste 0 -- -- 73
2019-04-23 22:00:00 4.1 3 Sudoeste 15 Oeste 0 -- -- 71
2019-04-23 21:00:00 5.5 8 Oeste 30 Oeste 0 -- -- 62
2019-04-23 20:00:00 7.6 17 Oeste 30 Oeste 0 -- -- 64
2019-04-23 19:00:00 8.8 17 Oeste 30 Sudoeste 0 -- -- 60
2019-04-23 18:00:00 7.4 17 Oeste 42 Oeste 0 -- -- 70
2019-04-23 17:00:00 8 23 Oeste 36 Oeste 0 -- -- 67
2019-04-23 16:00:00 10.4 18 Sur 32 Sudoeste 0 -- -- 54
2019-04-23 15:00:00 9.5 14 Sudoeste 28 Sudoeste 0 -- -- 60
2019-04-23 14:00:00 7.6 15 Sudoeste 28 Sur 0 -- -- 65
2019-04-23 13:00:00 7.4 15 Sudoeste 30 Oeste 0 -- -- 67
2019-04-23 12:00:00 6.8 14 Sudoeste 23 Sudoeste 0 -- -- 77
2019-04-23 11:00:00 5.7 11 Sudoeste 26 Sudoeste 0.2 -- -- 88
2019-04-23 10:00:00 4.9 10 Sudoeste 20 Sudoeste 0 -- -- 92
2019-04-23 09:00:00 4.7 10 Sudoeste 24 Sudoeste 0 -- -- 93
2019-04-23 08:00:00 5.1 8 Sudoeste 17 Sudoeste 0.2 -- -- 93
2019-04-23 07:00:00 5.9 5 Sudoeste 23 Sudoeste 0.4 -- -- 91
2019-04-23 06:00:00 7.2 13 Sur 26 Sur 0.2 -- -- 93
2019-04-23 05:00:00 7.5 15 Sur 27 Sur 0.2 -- -- 92
2019-04-23 04:00:00 7.5 5 Sudeste 9 Sur 0.6 -- -- 93
2019-04-23 03:00:00 7.4 3 Sur 11 Sudoeste 1 -- -- 92
2019-04-23 02:00:00 7.7 6 Oeste 22 Sudoeste 1.8 -- -- 91
2019-04-23 01:00:00 9.1 15 Sudoeste 32 Sudoeste 0.2 -- -- 81
2019-04-23 00:00:00 11.2 8 Sudoeste 16 Sur 0 -- -- 67
2019-04-22 23:00:00 11.7 4 Sudoeste 24 Sudoeste 0 -- -- 61
2019-04-22 22:00:00 12 8 Sur 15 Sur 0 -- -- 54
2019-04-22 21:00:00 13.4 8 Sudoeste 24 Sudoeste 0 -- -- 51
2019-04-22 20:00:00 13.9 10 Sur 24 Sur 0 -- -- 55
2019-04-22 19:00:00 14.4 14 Sur 27 Sur 0 -- -- 53
2019-04-22 18:00:00 15.5 13 Sur 30 Sur 0 -- -- 51
2019-04-22 17:00:00 13.8 12 Sur 27 Sudoeste 0 -- -- 55
2019-04-22 16:00:00 13.6 10 Sudoeste 21 Sudoeste 0 -- -- 56
2019-04-22 15:00:00 12.8 13 Sudoeste 27 Sudoeste 0 -- -- 56
2019-04-22 14:00:00 14 12 Sudoeste 24 Sudoeste 0 -- -- 55
2019-04-22 13:00:00 12.6 12 Sudoeste 22 Oeste 0 -- -- 58
2019-04-22 12:00:00 11.5 9 Oeste 18 Oeste 0 -- -- 63
2019-04-22 11:00:00 10.4 4 Sudoeste 16 Oeste 0 -- -- 70
2019-04-22 10:00:00 8 2 Este 7 Nordeste 0 -- -- 78
2019-04-22 09:00:00 4.5 3 Nordeste 5 Nordeste 0 -- -- 88
2019-04-22 08:00:00 2.8 4 Este 8 Noroeste 0 -- -- 90
2019-04-22 07:00:00 2.4 3 Nordeste 6 Nordeste 0 -- -- 93
2019-04-22 06:00:00 1.9 0 Calma 6 Nordeste 0 -- -- 90
2019-04-22 05:00:00 2.8 4 Nordeste 7 Nordeste 0 -- -- 85
2019-04-22 04:00:00 2.8 5 Nordeste 6 Nordeste 0 -- -- 88
2019-04-22 03:00:00 2.5 0 Calma 6 Este 0 -- -- 87
2019-04-22 02:00:00 2.9 2 Este 6 Este 0 -- -- 77
2019-04-22 01:00:00 4.8 0 Calma 10 Este 0 -- -- 72
2019-04-22 00:00:00 6.2 7 Este 11 Este 0 -- -- 71
2019-04-21 23:00:00 8.1 4 Nordeste 22 Este 0 -- -- 60
2019-04-21 22:00:00 9.5 17 Este 26 Este 0 -- -- 58
2019-04-21 21:00:00 11.5 19 Este 44 Este 0 -- -- 52
2019-04-21 20:00:00 13.3 25 Nordeste 40 Nordeste 0 -- -- 48
2019-04-21 19:00:00 15.1 30 Nordeste 46 Nordeste 0 -- -- 45
2019-04-21 18:00:00 15.8 31 Nordeste 49 Este 0 -- -- 43
2019-04-21 17:00:00 16.1 24 Nordeste 51 Nordeste 0 -- -- 41
2019-04-21 16:00:00 16.2 23 Nordeste 36 Nordeste 0 -- -- 41
2019-04-21 15:00:00 15.8 21 Norte 36 Nordeste 0 -- -- 42
2019-04-21 14:00:00 15.3 24 Nordeste 35 Nordeste 0 -- -- 40
2019-04-21 13:00:00 15.8 19 Este 38 Este 0 -- -- 45
2019-04-21 12:00:00 14.9 19 Nordeste 35 Este 0 -- -- 47
2019-04-21 11:00:00 13.8 15 Nordeste 28 Nordeste 0 -- -- 50
2019-04-21 10:00:00 11.9 8 Nordeste 15 Norte 0 -- -- 58
2019-04-21 09:00:00 8.3 9 Nordeste 12 Norte 0 -- -- 69
2019-04-21 08:00:00 4.4 8 Nordeste 14 Nordeste 0 -- -- 83
2019-04-21 07:00:00 2.9 3 Este 7 Noroeste 0 -- -- 84
2019-04-21 06:00:00 4.2 3 Noroeste 4 Noroeste 0 -- -- 80
2019-04-21 05:00:00 5.5 0 Calma 8 Este 0 -- -- 77
2019-04-21 04:00:00 8.2 6 Este 18 Nordeste 0 -- -- 68
2019-04-21 03:00:00 8.6 7 Este 21 Nordeste 0 -- -- 64
2019-04-21 02:00:00 8.7 11 Nordeste 19 Nordeste 0 -- -- 65
2019-04-21 01:00:00 9 8 Nordeste 11 Norte 0 -- -- 60
2019-04-21 00:00:00 9.8 6 Norte 22 Nordeste 0 -- -- 56
2019-04-20 23:00:00 11.1 19 Nordeste 29 Nordeste 0 -- -- 47
2019-04-20 22:00:00 13 20 Nordeste 35 Nordeste 0 -- -- 43
2019-04-20 21:00:00 14.4 23 Nordeste 40 Nordeste 0 -- -- 42
2019-04-20 20:00:00 16.4 27 Nordeste 39 Este 0 -- -- 40
2019-04-20 19:00:00 17.6 31 Nordeste 42 Nordeste 0 -- -- 33
2019-04-20 18:00:00 18.6 24 Nordeste 43 Nordeste 0 -- -- 34
2019-04-20 17:00:00 19.3 23 Nordeste 45 Norte 0 -- -- 35
2019-04-20 16:00:00 19.4 22 Nordeste 42 Nordeste 0 -- -- 35
2019-04-20 15:00:00 19.5 23 Nordeste 35 Nordeste 0 -- -- 34
2019-04-20 14:00:00 19.3 20 Nordeste 34 Norte 0 -- -- 36
2019-04-20 13:00:00 19.1 21 Nordeste 33 Norte 0 -- -- 35
2019-04-20 12:00:00 17.2 8 Noroeste 14 Noroeste 0 -- -- 49
2019-04-20 11:00:00 13.4 7 Oeste 11 Noroeste 0 -- -- 64
2019-04-20 10:00:00 10.1 3 Sudeste 7 Nordeste 0 -- -- 80
2019-04-20 09:00:00 6.5 4 Nordeste 10 Nordeste 0 -- -- 87
2019-04-20 08:00:00 4.3 8 Nordeste 13 Nordeste 0 -- -- 92
2019-04-20 07:00:00 4.1 4 Este 11 Nordeste 0 -- -- 89
2019-04-20 06:00:00 5.5 7 Este 17 Nordeste 0 -- -- 87
2019-04-20 05:00:00 6.4 11 Nordeste 16 Nordeste 0 -- -- 85
2019-04-20 04:00:00 6.2 9 Nordeste 13 Nordeste 0 -- -- 86
2019-04-20 03:00:00 7.9 7 Nordeste 11 Nordeste 0 -- -- 82
2019-04-20 02:00:00 8.7 2 Nordeste 14 Este 0 -- -- 77
2019-04-20 01:00:00 8.7 9 Este 13 Este 0 -- -- 76
2019-04-20 00:00:00 11.3 5 Norte 30 Sudeste 0 -- -- 63
2019-04-19 23:00:00 12.7 18 Este 32 Este 0 -- -- 58
2019-04-19 22:00:00 13 20 Este 39 Este 0 -- -- 56
2019-04-19 21:00:00 13.5 24 Este 44 Este 0 -- -- 55
2019-04-19 20:00:00 14 23 Este 50 Este 0 -- -- 56
2019-04-19 19:00:00 13.9 20 Este 45 Este 0 -- -- 55
2019-04-19 18:00:00 14 17 Este 36 Este 0 -- -- 64
2019-04-19 17:00:00 14.5 26 Este 50 Este 0 -- -- 62
2019-04-19 16:00:00 13.2 16 Este 39 Este 0 -- -- 71
2019-04-19 15:00:00 13.6 24 Este 47 Este 0 -- -- 70
2019-04-19 14:00:00 13.5 26 Este 42 Este 0 -- -- 67
2019-04-19 13:00:00 12.3 24 Este 41 Este 0 -- -- 71
2019-04-19 12:00:00 11.3 22 Este 37 Este 0 -- -- 81
2019-04-19 11:00:00 9.9 22 Este 40 Este 0 -- -- 86
2019-04-19 10:00:00 8.6 21 Este 36 Este 0 -- -- 88
2019-04-19 09:00:00 7.9 15 Este 25 Este 0 -- -- 93
2019-04-19 08:00:00 7.5 12 Este 31 Este 0.2 -- -- 94
2019-04-19 07:00:00 7.5 19 Este 30 Este 0.2 -- -- 92
2019-04-19 06:00:00 7.6 16 Este 34 Este 0.2 -- -- 92
2019-04-19 05:00:00 7.8 21 Este 32 Este 1.2 -- -- 93
2019-04-19 04:00:00 7.9 17 Nordeste 27 Este 0.6 -- -- 92
2019-04-19 03:00:00 7.2 10 Nordeste 17 Nordeste 0.2 -- -- 92
2019-04-19 02:00:00 7.2 8 Norte 21 Nordeste 1.2 -- -- 93
2019-04-19 01:00:00 7.7 14 Nordeste 23 Nordeste 1.2 -- -- 89
2019-04-19 00:00:00 8.3 15 Nordeste 27 Este 0 -- -- 86
2019-04-18 23:00:00 8.3 19 Este 29 Este 0 -- -- 89
2019-04-18 22:00:00 7.7 10 Nordeste 17 Nordeste 0.2 -- -- 95
2019-04-18 21:00:00 7.9 8 Nordeste 14 Este 1 -- -- 94
2019-04-18 20:00:00 8 11 Este 21 Nordeste 1.6 -- -- 92
2019-04-18 19:00:00 8.5 15 Este 23 Este 0.6 -- -- 89
2019-04-18 18:00:00 8.9 8 Este 18 Este 1 -- -- 89
2019-04-18 17:00:00 9.4 6 Este 19 Este 0.4 -- -- 86
2019-04-18 16:00:00 9.9 6 Este 23 Este 1 -- -- 86
2019-04-18 15:00:00 9 0 Calma 6 Norte 1.6 -- -- 91
2019-04-18 14:00:00 8.4 3 Norte 6 Norte 0.6 -- -- 92
2019-04-18 13:00:00 8.4 3 Norte 8 Este 1.4 -- -- 91
2019-04-18 12:00:00 9.3 0 Calma 5 Sudoeste 0 -- -- 81
2019-04-18 11:00:00 8.7 2 Sudeste 8 Sur 0 -- -- 84
2019-04-18 10:00:00 8 3 Sur 6 Sudeste 0 -- -- 91
2019-04-18 09:00:00 7.1 5 Sudeste 7 Sudeste 0 -- -- 95
2019-04-18 08:00:00 6.8 4 Sur 8 Sur 0 -- -- 94
2019-04-18 07:00:00 7.1 4 Sur 11 Sur 0 -- -- 93
2019-04-18 06:00:00 7.5 5 Sur 15 Sudoeste 0.8 -- -- 94
2019-04-18 05:00:00 7.8 7 Sudoeste 21 Sur 0.8 -- -- 94
2019-04-18 04:00:00 8 11 Sur 25 Sur 0.4 -- -- 93
2019-04-18 03:00:00 8.1 10 Sur 22 Sur 0.8 -- -- 92
2019-04-18 02:00:00 8.7 5 Sur 17 Sur 0.2 -- -- 90
2019-04-18 01:00:00 9.1 9 Sur 18 Sur 1.6 -- -- 87
2019-04-18 00:00:00 10.3 3 Sudoeste 19 Sudoeste 0 -- -- 80
2019-04-17 23:00:00 11 9 Sudoeste 44 Sudoeste 0 -- -- 79
2019-04-17 22:00:00 14.1 16 Sur 32 Sudeste 0 -- -- 61
2019-04-17 21:00:00 14.5 24 Sudeste 50 Sudeste 0 -- -- 60
2019-04-17 20:00:00 15.3 13 Sur 25 Sur 0 -- -- 57
2019-04-17 19:00:00 16.2 17 Sudeste 37 Sudeste 0 -- -- 55
2019-04-17 18:00:00 16.9 19 Sudeste 38 Este 0 -- -- 53
2019-04-17 17:00:00 16.3 8 Este 19 Sudeste 0 -- -- 55
2019-04-17 16:00:00 14.9 14 Sudeste 21 Sudeste 0 -- -- 59
2019-04-17 15:00:00 14.5 11 Sur 26 Sur 0 -- -- 60
2019-04-17 14:00:00 14.4 15 Sur 33 Sudoeste 0 -- -- 60
2019-04-17 13:00:00 14.5 15 Sur 32 Sudeste 0 -- -- 60
2019-04-17 12:00:00 13.8 18 Sur 33 Sur 0 -- -- 64
2019-04-17 11:00:00 12.4 19 Sudeste 30 Sudeste 0 -- -- 67
2019-04-17 10:00:00 11.2 23 Sudeste 30 Sudeste 0 -- -- 67
2019-04-17 09:00:00 9.5 16 Sudeste 31 Sudeste 0 -- -- 73
2019-04-17 08:00:00 8.6 16 Sudeste 31 Este 0 -- -- 73
2019-04-17 07:00:00 8.3 17 Sudeste 28 Sudeste 0 -- -- 74
2019-04-17 06:00:00 8.8 11 Sudeste 30 Sudeste 0 -- -- 70
2019-04-17 05:00:00 9.4 20 Este 31 Este 0 -- -- 68
2019-04-17 04:00:00 9.7 13 Este 23 Este 0 -- -- 67
2019-04-17 03:00:00 10.1 12 Sudeste 26 Este 0 -- -- 63
2019-04-17 02:00:00 10.4 14 Este 25 Este 0 -- -- 60
2019-04-17 01:00:00 9.2 9 Este 17 Este 0 -- -- 57
2019-04-17 00:00:00 9.6 15 Este 18 Este 0 -- -- 57
2019-04-16 23:00:00 9.8 14 Este 15 Este 0 -- -- 57
2019-04-16 22:00:00 9.2 10 Este 12 Este 0 -- -- 63
2019-04-16 21:00:00 13.4 5 Este 15 Sudeste 0 -- -- 46
2019-04-16 20:00:00 14.9 9 Sudeste 25 Sur 0 -- -- 40
2019-04-16 19:00:00 15.6 13 Sur 27 Sudeste 0 -- -- 38
2019-04-16 18:00:00 15.8 11 Sudeste 28 Sudoeste 0 -- -- 42
2019-04-16 17:00:00 15.7 12 Sur 27 Sudeste 0 -- -- 42
2019-04-16 16:00:00 15.3 11 Sudeste 25 Sudeste 0 -- -- 41
2019-04-16 15:00:00 14.2 11 Sur 23 Sudoeste 0 -- -- 49
2019-04-16 14:00:00 13.5 7 Sur 20 Sur 0 -- -- 50
2019-04-16 13:00:00 12.8 6 Sudoeste 16 Sur 0 -- -- 53
2019-04-16 12:00:00 11.2 5 Sudeste 17 Sur 0 -- -- 63
2019-04-16 11:00:00 10 7 Sudeste 16 Sudeste 0 -- -- 73
2019-04-16 10:00:00 8.3 8 Sudeste 14 Sudeste 0 -- -- 81
2019-04-16 09:00:00 5.6 3 Norte 6 Este 0 -- -- 93
2019-04-16 08:00:00 4.7 0 Calma 6 Sudeste 0 -- -- 96
2019-04-16 07:00:00 3.4 0 Calma 6 Norte 0 -- -- 96
2019-04-16 06:00:00 1.8 3 Nordeste 6 Este 0 -- -- 97
2019-04-16 05:00:00 1.3 3 Nordeste 6 Nordeste 0 -- -- 95
2019-04-16 04:00:00 1.4 4 Este 6 Este 0 -- -- 91
2019-04-16 03:00:00 3.4 4 Nordeste 13 Este 0 -- -- 91
2019-04-16 02:00:00 2.6 2 Este 8 Este 0 -- -- 91
2019-04-16 01:00:00 3.5 2 Sudoeste 5 Sur 0 -- -- 85
2019-04-16 00:00:00 6.1 5 Oeste 10 Sudoeste 0 -- -- 81
2019-04-15 23:00:00 7.9 4 Sudoeste 19 Oeste 0 -- -- 77
2019-04-15 22:00:00 9.1 11 Oeste 23 Noroeste 0 -- -- 72
2019-04-15 21:00:00 10.7 13 Oeste 37 Oeste 0 -- -- 62
2019-04-15 20:00:00 12 19 Noroeste 40 Oeste 0 -- -- 57
2019-04-15 19:00:00 13.3 21 Oeste 37 Oeste 0 -- -- 55
2019-04-15 18:00:00 13 17 Oeste 42 Noroeste 0 -- -- 59
2019-04-15 17:00:00 14.9 26 Oeste 52 Sudoeste 0 -- -- 63
2019-04-15 16:00:00 15.8 26 Oeste 49 Oeste 0 -- -- 53
2019-04-15 15:00:00 15.6 21 Oeste 36 Oeste 0 -- -- 69
2019-04-15 14:00:00 14.3 15 Sudoeste 55 Sudoeste 1.2 -- -- 93
2019-04-15 13:00:00 13.7 19 Sur 43 Sur 1.4 -- -- 86
2019-04-15 12:00:00 15.8 18 Sur 36 Sur 0 -- -- 71
2019-04-15 11:00:00 15.1 17 Sur 27 Sudeste 0 -- -- 73
2019-04-15 10:00:00 13.6 14 Sur 26 Sudeste 0 -- -- 77
2019-04-15 09:00:00 12.3 14 Sudeste 21 Sudeste 0 -- -- 80
2019-04-15 08:00:00 10.9 11 Sudeste 16 Sudeste 0 -- -- 85
2019-04-15 07:00:00 10.2 0 Calma 5 Este 0 -- -- 85
2019-04-15 06:00:00 10.4 0 Calma 5 Nordeste 0 -- -- 86
2019-04-15 05:00:00 10.4 4 Nordeste 5 Nordeste 0 -- -- 88
2019-04-15 04:00:00 10.1 0 Calma 5 Nordeste 0 -- -- 85
2019-04-15 03:00:00 9.6 3 Nordeste 7 Este 0 -- -- 87
2019-04-15 02:00:00 9.3 0 Calma 5 Este 0 -- -- 84
2019-04-15 01:00:00 10.6 0 Calma 8 Sudeste 0 -- -- 81
2019-04-15 00:00:00 12.6 3 Sur 9 Sur 0 -- -- 72
2019-04-14 23:00:00 14.4 6 Sudoeste 17 Sudoeste 0 -- -- 68
2019-04-14 22:00:00 15.3 9 Sudoeste 19 Sudoeste 0 -- -- 66
2019-04-14 21:00:00 16.8 8 Sudoeste 20 Sur 0 -- -- 60
2019-04-14 20:00:00 18.4 8 Sur 22 Sudoeste 0 -- -- 52
2019-04-14 19:00:00 19.2 11 Sur 23 Sudoeste 0 -- -- 50
2019-04-14 18:00:00 19.6 11 Sudoeste 27 Sudoeste 0 -- -- 48
2019-04-14 17:00:00 19.8 11 Sudoeste 32 Oeste 0 -- -- 50
2019-04-14 16:00:00 19.6 12 Sudoeste 23 Sudoeste 0 -- -- 49
2019-04-14 15:00:00 19.2 10 Oeste 24 Sudoeste 0 -- -- 50
2019-04-14 14:00:00 18.2 11 Oeste 20 Oeste 0 -- -- 54
2019-04-14 13:00:00 16.9 8 Sudoeste 16 Oeste 0 -- -- 56
2019-04-14 12:00:00 15.7 5 Sur 13 Sudoeste 0 -- -- 62
2019-04-14 11:00:00 13.4 5 Sudoeste 10 Sudoeste 0 -- -- 68
2019-04-14 10:00:00 9.6 0 Calma 7 Norte 0 -- -- 80
2019-04-14 09:00:00 7 2 Nordeste 9 Este 0 -- -- 92
2019-04-14 08:00:00 4.8 2 Sudeste 5 Este 0 -- -- 89
2019-04-14 07:00:00 6.5 2 Norte 5 Sur 0 -- -- 85
2019-04-14 06:00:00 7.6 2 Sur 5 Sur 0 -- -- 83
2019-04-14 05:00:00 9.3 0 Calma 8 Sudoeste 0 -- -- 76
2019-04-14 04:00:00 10.1 5 Sudoeste 8 Sudoeste 0 -- -- 73
2019-04-14 03:00:00 11.4 4 Sudoeste 12 Sudoeste 0 -- -- 68
2019-04-14 02:00:00 12.1 6 Sudoeste 12 Sudoeste 0 -- -- 66
2019-04-14 01:00:00 12.2 5 Sudoeste 11 Sudoeste 0 -- -- 64
2019-04-14 00:00:00 12.8 6 Sudoeste 10 Sudoeste 0 -- -- 59
2019-04-13 23:00:00 13.3 4 Oeste 9 Oeste 0 -- -- 59
2019-04-13 22:00:00 14.2 6 Sur 13 Sudoeste 0 -- -- 53
2019-04-13 21:00:00 15.3 3 Sur 10 Sudoeste 0 -- -- 50
2019-04-13 20:00:00 16.8 5 Sudoeste 24 Sudoeste 0 -- -- 43
2019-04-13 19:00:00 17.9 13 Oeste 31 Oeste 0 -- -- 39
2019-04-13 18:00:00 18.9 11 Sudoeste 27 Sudoeste 0 -- -- 36
2019-04-13 17:00:00 18.4 13 Oeste 27 Oeste 0 -- -- 35
2019-04-13 16:00:00 17.3 13 Oeste 29 Oeste 0 -- -- 35
2019-04-13 15:00:00 16.1 11 Sudoeste 24 Sudoeste 0 -- -- 42
2019-04-13 14:00:00 15.1 12 Sudoeste 21 Sudoeste 0 -- -- 44
2019-04-13 13:00:00 13.9 12 Sudoeste 21 Sudoeste 0 -- -- 48
2019-04-13 12:00:00 13.4 8 Sudoeste 17 Sudoeste 0 -- -- 47
2019-04-13 11:00:00 11.4 4 Oeste 11 Sudoeste 0 -- -- 54
2019-04-13 10:00:00 7.9 5 Norte 8 Este 0 -- -- 66
2019-04-13 09:00:00 3.7 6 Nordeste 11 Nordeste 0 -- -- 80
2019-04-13 08:00:00 -0.4 4 Nordeste 7 Nordeste 0 -- -- 91
2019-04-13 07:00:00 -0.4 5 Nordeste 8 Nordeste 0 -- -- 89
2019-04-13 06:00:00 -1 4 Nordeste 10 Nordeste 0 -- -- 89
2019-04-13 05:00:00 -0.2 5 Nordeste 8 Nordeste 0 -- -- 87
2019-04-13 04:00:00 0.8 5 Nordeste 8 Nordeste 0 -- -- 85
2019-04-13 03:00:00 1 6 Nordeste 8 Nordeste 0 -- -- 83
2019-04-13 02:00:00 2 3 Nordeste 6 Norte 0 -- -- 77
2019-04-13 01:00:00 2.2 5 Nordeste 10 Este 0 -- -- 76
2019-04-13 00:00:00 2.5 8 Este 10 Este 0 -- -- 79
2019-04-12 23:00:00 6.2 3 Nordeste 12 Sudeste 0 -- -- 57
2019-04-12 22:00:00 8.1 8 Sudeste 12 Sur 0 -- -- 50
2019-04-12 21:00:00 11.8 4 Sur 14 Sur 0 -- -- 41
2019-04-12 20:00:00 14.5 8 Sudoeste 14 Sudoeste 0 -- -- 32
2019-04-12 19:00:00 15 5 Sudoeste 18 Oeste 0 -- -- 32
2019-04-12 18:00:00 15.1 8 Sudoeste 21 Sur 0 -- -- 34
2019-04-12 17:00:00 14.5 10 Sudoeste 21 Sudoeste 0 -- -- 35
2019-04-12 16:00:00 13.5 5 Sudoeste 19 Sudoeste 0 -- -- 40
2019-04-12 15:00:00 12.2 6 Noroeste 17 Sudoeste 0 -- -- 45
2019-04-12 14:00:00 10.8 7 Sudoeste 20 Oeste 0 -- -- 58
2019-04-12 13:00:00 8.9 8 Oeste 18 Noroeste 0 -- -- 68
2019-04-12 12:00:00 7.7 9 Noroeste 17 Noroeste 0 -- -- 69
2019-04-12 11:00:00 6.1 6 Noroeste 13 Oeste 0 -- -- 76
2019-04-12 10:00:00 3.4 4 Nordeste 6 Nordeste 0 -- -- 88
2019-04-12 09:00:00 -1.3 2 Nordeste 7 Este 0 -- -- 96
2019-04-12 08:00:00 -3.5 2 Nordeste 5 Este 0 -- -- 94
2019-04-12 07:00:00 -3.5 3 Nordeste 5 Nordeste 0 -- -- 93
2019-04-12 06:00:00 -3.1 3 Este 6 Este 0 -- -- 92
2019-04-12 05:00:00 -1.9 2 Nordeste 6 Este 0 -- -- 92
2019-04-12 04:00:00 -1.6 2 Este 4 Norte 0 -- -- 89
2019-04-12 03:00:00 0.4 0 Calma 7 Sudeste 0 -- -- 89
2019-04-12 02:00:00 0.2 3 Este 6 Este 0 -- -- 88
2019-04-12 01:00:00 0.4 3 Este 9 Este 0 -- -- 84
2019-04-12 00:00:00 2.8 3 Sudeste 12 Norte 0 -- -- 79
2019-04-11 23:00:00 4.9 7 Nordeste 17 Nordeste 0 -- -- 75
2019-04-11 22:00:00 6.1 9 Norte 16 Norte 0 -- -- 69
2019-04-11 21:00:00 8 12 Norte 26 Norte 0 -- -- 62
2019-04-11 20:00:00 10.1 18 Norte 29 Norte 0 -- -- 53
2019-04-11 19:00:00 11.7 21 Norte 33 Norte 0 -- -- 50
2019-04-11 18:00:00 11.9 18 Norte 28 Norte 0 -- -- 49
2019-04-11 17:00:00 11.7 17 Norte 29 Norte 0 -- -- 48
2019-04-11 16:00:00 11.7 14 Norte 29 Norte 0 -- -- 48
2019-04-11 15:00:00 10.3 14 Nordeste 26 Norte 0 -- -- 49
2019-04-11 14:00:00 10.4 11 Norte 21 Norte 0 -- -- 52
2019-04-11 13:00:00 9.8 9 Norte 21 Norte 0 -- -- 54
2019-04-11 12:00:00 9.2 12 Norte 24 Nordeste 0 -- -- 54
2019-04-11 11:00:00 7.6 8 Nordeste 15 Nordeste 0 -- -- 60
2019-04-11 10:00:00 4.2 2 Norte 5 Nordeste 0 -- -- 80
2019-04-11 09:00:00 -0.5 0 Calma 5 Nordeste 0 -- -- 95
2019-04-11 08:00:00 -2.4 3 Nordeste 7 Nordeste 0 -- -- 91
2019-04-11 07:00:00 -1.6 4 Este 8 Nordeste 0 -- -- 93
2019-04-11 06:00:00 -2 4 Norte 9 Nordeste 0 -- -- 93
2019-04-11 05:00:00 -1.2 4 Nordeste 6 Nordeste 0 -- -- 93
2019-04-11 04:00:00 -1.5 3 Nordeste 5 Este 0 -- -- 90
2019-04-11 03:00:00 -0.3 3 Sudeste 5 Sur 0 -- -- 88
2019-04-11 02:00:00 1.2 2 Nordeste 9 Este 0 -- -- 82
2019-04-11 01:00:00 4.6 5 Norte 29 Norte 0 -- -- 75
2019-04-11 00:00:00 5.1 13 Norte 21 Norte 0 -- -- 73
2019-04-10 23:00:00 5.1 9 Norte 19 Norte 0 -- -- 73
2019-04-10 22:00:00 5 8 Norte 16 Norte 0 -- -- 73
2019-04-10 21:00:00 6.9 12 Norte 34 Nordeste 0 -- -- 65
2019-04-10 20:00:00 9 19 Norte 31 Norte 0 -- -- 63
2019-04-10 19:00:00 10.1 19 Norte 30 Norte 0 -- -- 57
2019-04-10 18:00:00 9.7 14 Norte 25 Norte 0.2 -- -- 63
2019-04-10 17:00:00 9.7 10 Norte 24 Nordeste 0 -- -- 72
2019-04-10 16:00:00 9.2 13 Nordeste 26 Nordeste 0 -- -- 67
2019-04-10 15:00:00 8.1 10 Nordeste 21 Nordeste 0 -- -- 74
2019-04-10 14:00:00 7 8 Este 16 Este 0 -- -- 78
2019-04-10 13:00:00 6.6 5 Norte 13 Norte 0 -- -- 84
2019-04-10 12:00:00 4.4 6 Nordeste 10 Nordeste 0 -- -- 91
2019-04-10 11:00:00 3.8 2 Noroeste 8 Oeste 0 -- -- 93
2019-04-10 10:00:00 2.5 2 Norte 4 Norte 0.2 -- -- 97
2019-04-10 09:00:00 1.3 2 Nordeste 4 Sudeste 1 -- -- 97
2019-04-10 08:00:00 0.7 0 Calma 5 Noroeste 0.2 -- -- 96
2019-04-10 07:00:00 0.2 2 Sur 2 Sur 0 -- -- 95
2019-04-10 06:00:00 1.1 2 Sudeste 4 Este 0.2 -- -- 94
2019-04-10 05:00:00 1.2 4 Nordeste 6 Nordeste 0 -- -- 94
2019-04-10 04:00:00 1.4 3 Sur 5 Sudoeste 0 -- -- 94
2019-04-10 03:00:00 1.2 3 Sudoeste 7 Oeste 0 -- -- 94
2019-04-10 02:00:00 1.8 4 Oeste 8 Oeste 0 -- -- 93
2019-04-10 01:00:00 3 3 Sudoeste 9 Oeste 0 -- -- 88
2019-04-10 00:00:00 4 6 Oeste 17 Oeste 0 -- -- 85
2019-04-09 23:00:00 4.8 6 Sudoeste 18 Oeste 0 -- -- 82
2019-04-09 22:00:00 5.1 8 Oeste 26 Sudoeste 0 -- -- 80
2019-04-09 21:00:00 6 14 Oeste 27 Oeste 0 -- -- 76
2019-04-09 20:00:00 7.9 18 Noroeste 35 Oeste 0 -- -- 63
2019-04-09 19:00:00 10.1 21 Oeste 42 Oeste 0 -- -- 52
2019-04-09 18:00:00 10.4 19 Oeste 46 Oeste 0 -- -- 59
2019-04-09 17:00:00 10.5 24 Oeste 45 Oeste 0 -- -- 55
2019-04-09 16:00:00 8.5 15 Oeste 30 Oeste 0 -- -- 69
2019-04-09 15:00:00 6.9 12 Oeste 22 Oeste 0 -- -- 80
2019-04-09 14:00:00 6 10 Oeste 17 Oeste 0 -- -- 85
2019-04-09 13:00:00 5 4 Noroeste 14 Oeste 0.6 -- -- 92
2019-04-09 12:00:00 4.2 8 Oeste 20 Sudoeste 2.4 -- -- 94
2019-04-09 11:00:00 4.3 8 Oeste 33 Oeste 1 -- -- 94
2019-04-09 10:00:00 4.8 12 Sudoeste 24 Sudoeste 0.2 -- -- 95
2019-04-09 09:00:00 4.3 11 Sudoeste 23 Sur 0.2 -- -- 96
2019-04-09 08:00:00 3.8 7 Sur 26 Sur 0.2 -- -- 95
2019-04-09 07:00:00 3.8 11 Sur 21 Sudoeste 0.8 -- -- 95
2019-04-09 06:00:00 3.6 9 Sudoeste 18 Sudoeste 0 -- -- 94
2019-04-09 05:00:00 2.7 0 Calma 6 Sur 0 -- -- 93
2019-04-09 04:00:00 1.5 3 Sur 6 Sur 0 -- -- 94
2019-04-09 03:00:00 1.8 3 Sur 7 Sudeste 0 -- -- 91
2019-04-09 02:00:00 1.3 2 Sur 5 Oeste 0 -- -- 92
2019-04-09 01:00:00 1.9 0 Calma 8 Sudoeste 0 -- -- 87
2019-04-09 00:00:00 3.7 3 Sudoeste 9 Sudoeste 0 -- -- 86
2019-04-08 23:00:00 4.5 6 Sudoeste 13 Sudoeste 0 -- -- 80
2019-04-08 22:00:00 5.8 7 Sudoeste 30 Sudoeste 0 -- -- 74
2019-04-08 21:00:00 7.7 18 Sudoeste 32 Sudoeste 0 -- -- 66
2019-04-08 20:00:00 9.5 13 Sudoeste 30 Sudoeste 0 -- -- 57
2019-04-08 19:00:00 10 18 Oeste 33 Oeste 0 -- -- 51
2019-04-08 18:00:00 9.8 11 Sudoeste 39 Sudoeste 0 -- -- 70
2019-04-08 17:00:00 9.6 8 Sur 36 Sudoeste 0 -- -- 63
2019-04-08 16:00:00 11.1 12 Sudoeste 22 Sudoeste 0 -- -- 51
2019-04-08 15:00:00 10.7 12 Sudoeste 21 Sur 0 -- -- 53
2019-04-08 14:00:00 9.3 11 Oeste 27 Oeste 0 -- -- 55
2019-04-08 13:00:00 9.6 15 Oeste 28 Oeste 0 -- -- 58
2019-04-08 12:00:00 8.2 15 Oeste 26 Oeste 0 -- -- 67
2019-04-08 11:00:00 6.4 14 Oeste 23 Oeste 0 -- -- 85
2019-04-08 10:00:00 5.2 2 Oeste 8 Sudoeste 0 -- -- 98
2019-04-08 09:00:00 4.4 6 Oeste 10 Sudoeste 0 -- -- 97
2019-04-08 08:00:00 4.3 3 Noroeste 5 Nordeste 0 -- -- 97
2019-04-08 07:00:00 4.1 2 Nordeste 7 Nordeste 0 -- -- 97
2019-04-08 06:00:00 4 5 Nordeste 7 Norte 0 -- -- 97
2019-04-08 05:00:00 3.9 5 Nordeste 10 Norte 0.6 -- -- 97
2019-04-08 04:00:00 3.8 8 Este 12 Nordeste 0.6 -- -- 96
2019-04-08 03:00:00 3.4 9 Este 15 Este 0 -- -- 96
2019-04-08 02:00:00 3 7 Nordeste 16 Nordeste 0.2 -- -- 95
2019-04-08 01:00:00 3.2 10 Nordeste 13 Nordeste 0.2 -- -- 95
2019-04-08 00:00:00 3.7 6 Nordeste 8 Nordeste 0.8 -- -- 93
2019-04-07 23:00:00 3.9 3 Este 8 Sudeste 1 -- -- 93
2019-04-07 22:00:00 3.8 2 Sur 16 Sur 1.4 -- -- 92
2019-04-07 21:00:00 3.9 10 Sudoeste 21 Sudoeste 1.2 -- -- 91
2019-04-07 20:00:00 4.3 11 Sudoeste 31 Oeste 0.8 -- -- 90
2019-04-07 19:00:00 5.9 19 Sudoeste 43 Sudoeste 0 -- -- 81
2019-04-07 18:00:00 8.7 20 Sudoeste 42 Sudoeste 0 -- -- 58
2019-04-07 17:00:00 9.9 17 Sudoeste 29 Sudoeste 0 -- -- 46
2019-04-07 16:00:00 10 13 Sudoeste 30 Sudoeste 0 -- -- 48
2019-04-07 15:00:00 9.7 14 Sudoeste 32 Sudoeste 0 -- -- 49
2019-04-07 14:00:00 8.8 13 Sudoeste 28 Sudoeste 0 -- -- 48
2019-04-07 13:00:00 7.7 12 Sudoeste 22 Sudoeste 0 -- -- 47
2019-04-07 12:00:00 6.2 8 Oeste 17 Sudoeste 0 -- -- 56
2019-04-07 11:00:00 3.7 5 Oeste 12 Oeste 0 -- -- 78
2019-04-07 10:00:00 1.4 5 Sudoeste 9 Sudoeste 0 -- -- 88
2019-04-07 09:00:00 -0.1 4 Sudoeste 10 Sudoeste 0 -- -- 95
2019-04-07 08:00:00 -1.4 4 Sudoeste 7 Sudoeste 0 -- -- 95
2019-04-07 07:00:00 -0.9 5 Oeste 11 Oeste 0 -- -- 94
2019-04-07 06:00:00 -0.5 2 Oeste 10 Oeste 0 -- -- 94
2019-04-07 05:00:00 -0.5 4 Oeste 11 Oeste 0 -- -- 94
2019-04-07 04:00:00 -0.1 4 Oeste 11 Oeste 0 -- -- 93
2019-04-07 03:00:00 0.2 3 Oeste 12 Oeste 0 -- -- 92
2019-04-07 02:00:00 0.6 4 Sudoeste 14 Oeste 0 -- -- 91
2019-04-07 01:00:00 1.4 6 Oeste 18 Oeste 0 -- -- 88
2019-04-07 00:00:00 1.7 5 Sur 22 Oeste 0 -- -- 82
2019-04-06 23:00:00 2.3 9 Oeste 24 Oeste 0 -- -- 78
2019-04-06 22:00:00 2.8 11 Oeste 26 Oeste 0 -- -- 81
2019-04-06 21:00:00 4.3 15 Oeste 31 Oeste 0 -- -- 75
2019-04-06 20:00:00 5.5 19 Oeste 39 Oeste 0 -- -- 70
2019-04-06 19:00:00 6.9 21 Oeste 41 Oeste 0 -- -- 66
2019-04-06 18:00:00 6.5 24 Oeste 43 Oeste 0 -- -- 67
2019-04-06 17:00:00 8 23 Oeste 41 Oeste 0 -- -- 59
2019-04-06 16:00:00 6.4 16 Sudoeste 34 Sudoeste 0 -- -- 80
2019-04-06 15:00:00 3.6 11 Oeste 31 Oeste 0.6 -- -- 91
2019-04-06 14:00:00 4.9 16 Sudoeste 32 Sudoeste 0 -- -- 76
2019-04-06 13:00:00 3.5 17 Sudoeste 35 Sudoeste 0.2 -- -- 88
2019-04-06 12:00:00 3.4 17 Sudoeste 35 Sudoeste 0 -- -- 86
2019-04-06 11:00:00 2.7 17 Sudoeste 28 Oeste 0 -- -- 86
2019-04-06 10:00:00 1.7 14 Sudoeste 28 Oeste 0 -- -- 90
2019-04-06 09:00:00 1.6 13 Sudoeste 32 Oeste 0.2 -- -- 94
2019-04-06 08:00:00 0.9 8 Sur 15 Sur 0.2 -- -- 96
2019-04-06 07:00:00 0.4 5 Sur 13 Sudoeste 0 -- -- 96
2019-04-06 06:00:00 -0.2 0 Calma 2 Sudoeste 0 -- -- 95
2019-04-06 05:00:00 -0.7 0 Calma 7 Sudoeste 0 -- -- 94
2019-04-06 04:00:00 -0.5 2 Sudoeste 7 Sudoeste 0 -- -- 92
2019-04-06 03:00:00 0.1 4 Sur 12 Sudoeste 0 -- -- 93
2019-04-06 02:00:00 0.2 6 Oeste 10 Oeste 0 -- -- 91
2019-04-06 01:00:00 0.9 4 Sudoeste 9 Sudoeste 0 -- -- 90
2019-04-06 00:00:00 1.7 4 Oeste 13 Oeste 0 -- -- 86
2019-04-05 23:00:00 2.3 5 Sudoeste 12 Sudoeste 0 -- -- 86
2019-04-05 22:00:00 3.4 11 Sudoeste 24 Oeste 0 -- -- 80
2019-04-05 21:00:00 4 8 Oeste 21 Sudoeste 0 -- -- 77
2019-04-05 20:00:00 6.2 5 Sudoeste 22 Sudoeste 0 -- -- 60
2019-04-05 19:00:00 7.3 13 Sudoeste 29 Sudoeste 0 -- -- 57
2019-04-05 18:00:00 6 3 Este 32 Oeste 0 -- -- 58
2019-04-05 17:00:00 7.3 19 Oeste 38 Oeste 0 -- -- 50
2019-04-05 16:00:00 7.9 13 Sudoeste 27 Oeste 0 -- -- 53
2019-04-05 15:00:00 6.7 7 Oeste 23 Oeste 0 -- -- 68
2019-04-05 14:00:00 7.3 15 Sudoeste 26 Sudoeste 0 -- -- 60
2019-04-05 13:00:00 5.4 12 Oeste 20 Oeste 0 -- -- 66
2019-04-05 12:00:00 4.5 12 Oeste 19 Oeste 0 -- -- 80
2019-04-05 11:00:00 3.5 6 Sudoeste 18 Sudoeste 0 -- -- 84
2019-04-05 10:00:00 2.8 9 Sudoeste 14 Oeste 0 -- -- 92
2019-04-05 09:00:00 2.4 8 Oeste 18 Sudoeste 0 -- -- 93
2019-04-05 08:00:00 2.7 6 Sudoeste 24 Sudoeste 0 -- -- 94
2019-04-05 07:00:00 3.1 12 Sudoeste 26 Sur 0 -- -- 95
2019-04-05 06:00:00 3 11 Sur 23 Sudoeste 0 -- -- 95
2019-04-05 05:00:00 3 13 Sudoeste 28 Sudoeste 0 -- -- 95
2019-04-05 04:00:00 2.7 12 Sur 23 Sur 0.8 -- -- 95
2019-04-05 03:00:00 2.1 7 Sudoeste 28 Sudoeste 2.4 -- -- 94
2019-04-05 02:00:00 2.5 10 Sur 31 Sur 2.2 -- -- 94
2019-04-05 01:00:00 2.1 9 Sur 21 Sur 1.8 -- -- 94
2019-04-05 00:00:00 2.1 10 Sudoeste 23 Sur 1.8 -- -- 94
2019-04-04 23:00:00 2.2 14 Sudoeste 26 Sudoeste 0.8 -- -- 93
2019-04-04 22:00:00 2.4 13 Sudoeste 29 Sur 0.6 -- -- 93
2019-04-04 21:00:00 2.6 15 Sudoeste 30 Sudoeste 0.8 -- -- 92
2019-04-04 20:00:00 3.1 15 Sudoeste 36 Sudoeste 0.4 -- -- 87
2019-04-04 19:00:00 5.7 16 Sudoeste 37 Sur 0 -- -- 61
2019-04-04 18:00:00 7.5 17 Sudoeste 33 Sudoeste 0 -- -- 50
2019-04-04 17:00:00 8.4 13 Sudoeste 32 Oeste 0 -- -- 39
2019-04-04 16:00:00 8.5 17 Oeste 31 Sudoeste 0 -- -- 42
2019-04-04 15:00:00 8.3 15 Sudoeste 31 Sudoeste 0 -- -- 42
2019-04-04 14:00:00 6.4 14 Sudoeste 31 Sudoeste 0 -- -- 50
2019-04-04 13:00:00 5.4 14 Oeste 27 Sudoeste 0 -- -- 52
2019-04-04 12:00:00 4.5 16 Sudoeste 24 Sudoeste 0 -- -- 61
2019-04-04 11:00:00 2.8 12 Oeste 24 Sudoeste 0 -- -- 71
2019-04-04 10:00:00 -0.6 4 Oeste 9 Sudoeste 0 -- -- 84
2019-04-04 09:00:00 -4.1 2 Este 3 Sudeste 0 -- -- 93
2019-04-04 08:00:00 -6.6 2 Este 4 Este 0 -- -- 89
2019-04-04 07:00:00 -4.1 2 Sudoeste 7 Sudoeste 0 -- -- 91
2019-04-04 06:00:00 -4.6 0 Calma 9 Sudoeste 0 -- -- 85
2019-04-04 05:00:00 -3.2 4 Sudoeste 8 Sudoeste 0 -- -- 86
2019-04-04 04:00:00 -3.3 2 Sudoeste 8 Sudoeste 0 -- -- 84
2019-04-04 03:00:00 -2.2 5 Oeste 9 Sudoeste 0 -- -- 79
2019-04-04 02:00:00 -1.5 4 Oeste 17 Oeste 0 -- -- 78
2019-04-04 01:00:00 -0.9 11 Noroeste 19 Noroeste 0 -- -- 77
2019-04-04 00:00:00 -0.4 4 Noroeste 19 Norte 0 -- -- 70
2019-04-03 23:00:00 0.4 5 Norte 19 Norte 0 -- -- 68
2019-04-03 22:00:00 0.4 11 Norte 22 Norte 0 -- -- 77
2019-04-03 21:00:00 1.6 16 Norte 32 Norte 0 -- -- 73
2019-04-03 20:00:00 4 16 Norte 39 Norte 0 -- -- 60
2019-04-03 19:00:00 5.2 21 Norte 47 Noroeste 0 -- -- 53
2019-04-03 18:00:00 7.1 23 Noroeste 43 Noroeste 0 -- -- 31
2019-04-03 17:00:00 6.7 23 Norte 40 Noroeste 0 -- -- 44
2019-04-03 16:00:00 7.7 21 Noroeste 44 Norte 0 -- -- 38
2019-04-03 15:00:00 7.9 18 Noroeste 38 Norte 0 -- -- 46
2019-04-03 14:00:00 7.5 18 Noroeste 36 Norte 0 -- -- 43
2019-04-03 13:00:00 7.6 25 Noroeste 43 Noroeste 0 -- -- 48
2019-04-03 12:00:00 5.6 16 Norte 34 Norte 0 -- -- 68
2019-04-03 11:00:00 5.5 12 Oeste 23 Oeste 0 -- -- 62
2019-04-03 10:00:00 3.5 10 Oeste 19 Oeste 0 -- -- 70
2019-04-03 09:00:00 0.4 0 Calma 9 Oeste 0 -- -- 86
2019-04-03 08:00:00 -1.2 5 Sudoeste 6 Sudoeste 0 -- -- 90
2019-04-03 07:00:00 -0.1 0 Calma 3 Sudoeste 0 -- -- 89
2019-04-03 06:00:00 0.5 0 Calma 3 Nordeste 0 -- -- 87
2019-04-03 05:00:00 1 0 Calma 3 Este 0 -- -- 90
2019-04-03 04:00:00 -0.1 3 Este 6 Sudeste -- -- -- 90
2019-04-03 03:00:00 -0.7 5 Oeste 8 Oeste 0 -- -- 91
2019-04-03 02:00:00 -0.7 0 Calma 3 Sudoeste 0 -- -- 87
2019-04-03 01:00:00 0.8 0 Calma 4 Sudeste 0 -- -- 82
2019-04-03 00:00:00 2.1 2 Este 6 Este 0 -- -- 80
2019-04-02 23:00:00 4.8 2 Norte 14 Norte 0 -- -- 72
2019-04-02 22:00:00 7.1 10 Norte 15 Nordeste 0 -- -- 71
2019-04-02 21:00:00 9.2 8 Nordeste 30 Norte 0 -- -- 62
2019-04-02 20:00:00 12.4 21 Norte 31 Norte 0 -- -- 50
2019-04-02 19:00:00 14.9 6 Norte 23 Oeste 0 -- -- 36
2019-04-02 18:00:00 15.3 12 Oeste 31 Oeste 0 -- -- 32
2019-04-02 17:00:00 14.8 11 Sudoeste 27 Oeste 0 -- -- 36
2019-04-02 16:00:00 16 12 Oeste 31 Sudoeste 0 -- -- 36
2019-04-02 15:00:00 14.4 8 Sur 24 Oeste 0 -- -- 40
2019-04-02 14:00:00 14.3 10 Sudoeste 20 Sudoeste 0 -- -- 36
2019-04-02 13:00:00 13.6 6 Oeste 15 Sudoeste 0 -- -- 39
2019-04-02 12:00:00 11.3 5 Sudoeste 13 Oeste 0 -- -- 44
2019-04-02 11:00:00 9.1 2 Oeste 6 Oeste 0 -- -- 55
2019-04-02 10:00:00 5.5 0 Calma 6 Norte 0 -- -- 74
2019-04-02 09:00:00 2.3 4 Este 9 Norte 0 -- -- 85
2019-04-02 08:00:00 1.9 3 Este 4 Norte 0 -- -- 83
2019-04-02 07:00:00 2.3 0 Calma 4 Sudoeste 0 -- -- 84
2019-04-02 06:00:00 1.5 3 Sur 6 Nordeste 0 -- -- 82
2019-04-02 05:00:00 1.4 3 Nordeste 10 Nordeste 0 -- -- 81
2019-04-02 04:00:00 2.5 7 Nordeste 10 Este 0 -- -- 82
2019-04-02 03:00:00 3.9 3 Nordeste 9 Este 0 -- -- 76
2019-04-02 02:00:00 4.8 5 Este 14 Este 0 -- -- 72
2019-04-02 01:00:00 5.4 7 Este 9 Nordeste 0 -- -- 68
2019-04-02 00:00:00 7.7 9 Nordeste 17 Este 0 -- -- 65
2019-04-01 23:00:00 9.2 10 Nordeste 25 Este 0 -- -- 60
2019-04-01 22:00:00 10.5 10 Nordeste 21 Nordeste 0 -- -- 58
2019-04-01 21:00:00 12.7 9 Nordeste 18 Nordeste 0 -- -- 46
2019-04-01 20:00:00 14.1 8 Sudeste 18 Este 0 -- -- 41
2019-04-01 19:00:00 15.9 6 Sudoeste 19 Sudoeste 0 -- -- 36
2019-04-01 18:00:00 16 7 Sudoeste 18 Oeste 0 -- -- 34
2019-04-01 17:00:00 16.4 7 Oeste 21 Sudoeste 0 -- -- 38
2019-04-01 16:00:00 16 10 Sudoeste 22 Oeste 0 -- -- 38
2019-04-01 15:00:00 14.9 7 Sudoeste 23 Oeste 0 -- -- 40
2019-04-01 14:00:00 14.1 7 Oeste 21 Sudoeste 0 -- -- 44
2019-04-01 13:00:00 12.8 6 Sudoeste 18 Sudoeste 0 -- -- 49
2019-04-01 12:00:00 11.6 6 Oeste 14 Oeste 0 -- -- 52
2019-04-01 11:00:00 9.6 3 Norte 10 Nordeste 0 -- -- 60
2019-04-01 10:00:00 5 6 Nordeste 10 Nordeste 0 -- -- 76
2019-04-01 09:00:00 -0.6 3 Nordeste 7 Nordeste 0 -- -- 94
2019-04-01 08:00:00 -1.7 4 Este 5 Este 0 -- -- 90
2019-04-01 07:00:00 -1.1 5 Este 6 Este 0 -- -- 88
2019-04-01 06:00:00 0 5 Nordeste 6 Este 0 -- -- 90
2019-04-01 05:00:00 1.5 4 Nordeste 8 Este 0 -- -- 84
2019-04-01 04:00:00 3.9 3 Nordeste 4 Nordeste 0 -- -- 82
2019-04-01 03:00:00 3 2 Este 9 Este 0 -- -- 83
2019-04-01 02:00:00 2 4 Nordeste 8 Este 0 -- -- 81
2019-04-01 01:00:00 3.8 7 Este 12 Nordeste 0 -- -- 71
2019-04-01 00:00:00 6.4 5 Este 12 Sudeste 0 -- -- 58
2019-03-31 23:00:00 8.2 8 Este 14 Este 0 -- -- 56
2019-03-31 22:00:00 10.3 10 Este 15 Nordeste 0 -- -- 49
2019-03-31 21:00:00 11 12 Este 20 Este 0 -- -- 40
2019-03-31 20:00:00 13.9 14 Este 30 Este 0 -- -- 33
2019-03-31 19:00:00 14.5 13 Este 33 Este 0 -- -- 33
2019-03-31 18:00:00 16.7 11 Sudeste 32 Este 0 -- -- 29
2019-03-31 17:00:00 17.2 14 Sudeste 27 Este 0 -- -- 31
2019-03-31 16:00:00 15.7 10 Este 30 Sudeste 0 -- -- 34
2019-03-31 15:00:00 16.2 8 Sudeste 33 Sudeste 0 -- -- 32
2019-03-31 14:00:00 16.7 16 Sudeste 31 Sudeste 0 -- -- 32
2019-03-31 13:00:00 15.5 13 Sudeste 29 Sudeste 0 -- -- 35
2019-03-31 12:00:00 14.8 12 Sudeste 22 Sudeste 0 -- -- 36
2019-03-31 11:00:00 12 10 Este 22 Este 0 -- -- 43
2019-03-31 10:00:00 9.7 9 Nordeste 24 Este 0 -- -- 46
2019-03-31 09:00:00 6.1 8 Nordeste 12 Nordeste 0 -- -- 62
2019-03-31 08:00:00 6.5 7 Nordeste 12 Nordeste 0 -- -- 56
2019-03-31 07:00:00 6.4 9 Este 15 Este 0 -- -- 56
2019-03-31 06:00:00 6.8 11 Este 15 Este 0 -- -- 56
2019-03-31 05:00:00 7.2 8 Nordeste 14 Este 0 -- -- 57
2019-03-31 03:00:00 8.2 15 Este 23 Este 0 -- -- 58
2019-03-31 01:00:00 9.2 15 Este 23 Este 0 -- -- 58
2019-03-31 00:00:00 10.1 13 Este 21 Este 0 -- -- 56
2019-03-30 23:00:00 9.8 12 Este 16 Este 0 -- -- 55
2019-03-30 22:00:00 11 11 Este 26 Este 0 -- -- 50
2019-03-30 21:00:00 12.2 15 Este 24 Este 0 -- -- 44
2019-03-30 20:00:00 13.2 16 Este 29 Este 0 -- -- 42
2019-03-30 19:00:00 13.8 10 Nordeste 18 Norte 0 -- -- 41
2019-03-30 18:00:00 15.5 5 Sur 17 Sur 0 -- -- 33
2019-03-30 17:00:00 16.7 9 Sudoeste 22 Sudoeste 0 -- -- 30
2019-03-30 16:00:00 17.1 11 Sur 23 Sudoeste 0 -- -- 31
2019-03-30 15:00:00 16.3 16 Sur 24 Sur 0 -- -- 32
2019-03-30 14:00:00 15.8 9 Sur 21 Sur 0 -- -- 36
2019-03-30 13:00:00 14.8 6 Sudeste 26 Sudeste 0 -- -- 40
2019-03-30 12:00:00 13.6 9 Sur 23 Sudeste 0 -- -- 42
2019-03-30 11:00:00 12.1 11 Sudeste 20 Sudeste 0 -- -- 46
2019-03-30 10:00:00 10.5 13 Sudeste 27 Este 0 -- -- 50
2019-03-30 09:00:00 8.6 16 Este 27 Este 0 -- -- 53
2019-03-30 08:00:00 5.9 10 Este 18 Este 0 -- -- 59
2019-03-30 07:00:00 5.8 6 Este 13 Este 0 -- -- 59
2019-03-30 06:00:00 6.5 5 Nordeste 22 Este 0 -- -- 55
2019-03-30 05:00:00 6 11 Este 20 Este 0 -- -- 55
2019-03-30 04:00:00 5 9 Este 17 Sudeste 0 -- -- 56
2019-03-30 03:00:00 2.3 3 Este 8 Nordeste 0 -- -- 63
2019-03-30 02:00:00 5.2 3 Norte 14 Sudeste 0 -- -- 57
2019-03-30 01:00:00 3.9 6 Sudeste 8 Sudeste 0 -- -- 60
2019-03-30 00:00:00 5.4 5 Este 7 Nordeste 0 -- -- 59
2019-03-29 23:00:00 5.7 3 Este 8 Este 0 -- -- 55
2019-03-29 22:00:00 10.4 3 Noroeste 11 Sur 0 -- -- 42
2019-03-29 21:00:00 11.6 6 Sur 15 Sur 0 -- -- 38
2019-03-29 20:00:00 13 8 Sur 20 Sur 0 -- -- 36
2019-03-29 19:00:00 16.1 9 Sur 17 Sur 0 -- -- 29
2019-03-29 18:00:00 17 10 Sur 18 Sudoeste 0 -- -- 28
2019-03-29 17:00:00 17.6 8 Oeste 24 Sur 0 -- -- 27
2019-03-29 16:00:00 17.3 12 Sur 28 Sudoeste 0 -- -- 27
2019-03-29 15:00:00 17.1 11 Sudoeste 24 Sudoeste 0 -- -- 28
2019-03-29 14:00:00 16.1 12 Sur 23 Sur 0 -- -- 32
2019-03-29 13:00:00 14.8 10 Sur 23 Sur 0 -- -- 36
2019-03-29 12:00:00 13.2 10 Sudeste 20 Sudeste 0 -- -- 41
2019-03-29 11:00:00 12.1 8 Sudeste 17 Sudeste 0 -- -- 45
2019-03-29 10:00:00 10.5 8 Sudeste 21 Este 0 -- -- 48
2019-03-29 09:00:00 6.6 3 Nordeste 8 Norte 0 -- -- 60
2019-03-29 08:00:00 0.7 4 Nordeste 8 Nordeste 0 -- -- 76
2019-03-29 07:00:00 -0.6 2 Nordeste 9 Nordeste 0 -- -- 74
2019-03-29 06:00:00 -0.4 4 Este 11 Nordeste 0 -- -- 73
2019-03-29 05:00:00 2 11 Nordeste 14 Nordeste 0 -- -- 67
2019-03-29 04:00:00 1.3 10 Nordeste 13 Nordeste 0 -- -- 70
2019-03-29 03:00:00 0.9 6 Nordeste 12 Nordeste 0 -- -- 67
2019-03-29 02:00:00 0.5 4 Nordeste 7 Este 0 -- -- 71
2019-03-29 01:00:00 3.6 6 Este 13 Este 0 -- -- 58
2019-03-29 00:00:00 4.7 8 Sudeste 14 Nordeste 0 -- -- 55
2019-03-28 23:00:00 6.5 4 Nordeste 21 Este 0 -- -- 55
2019-03-28 22:00:00 7.3 16 Este 24 Este 0 -- -- 57
2019-03-28 21:00:00 9.3 15 Este 31 Sudeste 0 -- -- 49
2019-03-28 20:00:00 11.7 18 Este 39 Este 0 -- -- 41
2019-03-28 19:00:00 14.6 25 Este 42 Sudeste 0 -- -- 35
2019-03-28 18:00:00 16.6 30 Este 43 Sudeste 0 -- -- 31
2019-03-28 17:00:00 17.6 27 Sudeste 42 Sudeste 0 -- -- 29
2019-03-28 16:00:00 18.1 23 Sudeste 43 Sudeste 0 -- -- 27
2019-03-28 15:00:00 18.3 26 Sudeste 44 Sudeste 0 -- -- 23
2019-03-28 14:00:00 18.1 26 Este 46 Este 0 -- -- 22
2019-03-28 13:00:00 16.7 22 Este 38 Sudeste 0 -- -- 22
2019-03-28 12:00:00 15.3 14 Este 32 Este 0 -- -- 24
2019-03-28 11:00:00 11.9 6 Norte 13 Norte 0 -- -- 31
2019-03-28 10:00:00 7.7 4 Norte 8 Norte 0 -- -- 38
2019-03-28 09:00:00 4.5 3 Nordeste 8 Este 0 -- -- 45
2019-03-28 08:00:00 -2.7 2 Nordeste 7 Este 0 -- -- 71
2019-03-28 07:00:00 -3.4 3 Nordeste 6 Nordeste 0 -- -- 74
2019-03-28 06:00:00 -2.6 3 Sudeste 9 Nordeste 0 -- -- 64
2019-03-28 05:00:00 -2.8 4 Nordeste 8 Nordeste 0 -- -- 70
2019-03-28 04:00:00 -2.1 5 Nordeste 9 Este 0 -- -- 70
2019-03-28 03:00:00 -1.8 0 Calma 6 Sudoeste 0 -- -- 65
2019-03-28 02:00:00 0.5 4 Sudoeste 6 Sudoeste 0 -- -- 58
2019-03-28 01:00:00 3.2 0 Calma 7 Sudeste 0 -- -- 47
2019-03-28 00:00:00 5.2 4 Sur 14 Sudeste 0 -- -- 40
2019-03-27 23:00:00 5.8 8 Sudeste 13 Este 0 -- -- 33
2019-03-27 22:00:00 6.4 3 Este 15 Este 0 -- -- 32
2019-03-27 21:00:00 10.1 13 Este 21 Este 0 -- -- 26
2019-03-27 20:00:00 11.8 18 Este 33 Este 0 -- -- 24
2019-03-27 19:00:00 15.1 22 Este 38 Este 0 -- -- 18
2019-03-27 18:00:00 17.1 24 Este 39 Este 0 -- -- 17
2019-03-27 17:00:00 18 25 Este 43 Este 0 -- -- 18
2019-03-27 16:00:00 18.3 26 Este 39 Sudeste 0 -- -- 19
2019-03-27 15:00:00 18.6 21 Este 43 Sudeste 0 -- -- 18
2019-03-27 14:00:00 18.2 21 Este 42 Este 0 -- -- 18
2019-03-27 13:00:00 17.2 28 Este 49 Este 0 -- -- 16
2019-03-27 12:00:00 16.5 23 Sudeste 46 Este 0 -- -- 19
2019-03-27 11:00:00 15.3 23 Este 38 Este 0 -- -- 15
2019-03-27 10:00:00 13 17 Este 29 Este 0 -- -- 17
2019-03-27 09:00:00 10.5 9 Este 19 Este 0 -- -- 15
2019-03-27 08:00:00 4.1 12 Este 19 Sudeste 0 -- -- 22
2019-03-27 07:00:00 1.4 0 Calma 18 Este 0 -- -- 36
2019-03-27 06:00:00 2.8 13 Este 20 Este 0 -- -- 23
2019-03-27 05:00:00 4.2 14 Este 23 Este 0 -- -- 20
2019-03-27 04:00:00 4.6 14 Este 19 Este 0 -- -- 22
2019-03-27 03:00:00 4.5 12 Este 21 Este 0 -- -- 20
2019-03-27 02:00:00 5.5 9 Nordeste 15 Nordeste 0 -- -- 19
2019-03-27 01:00:00 4.7 5 Nordeste 21 Nordeste 0 -- -- 25
2019-03-27 00:00:00 5.7 17 Nordeste 27 Nordeste 0 -- -- 21